Time;durP1;ratioP1;P1;durP2;ratioP2;P2;SDS_P1;SDS_P2;PMS_P1;PMS_P2;Temp;Humidity;BMP_temperature;BMP_pressure;BME280_temperature;BME280_humidity;BME280_pressure;Samples;Min_cycle;Max_cycle;Signal;HPM_P1;HPM_P2
2023/09/09 01:09:25;;;;;;;5.57;3.13;;;;;;;14.95;76.04;99794.75;4959768;28;20058;-96
2023/09/09 01:12:22;;;;;;;8.35;3.33;;;;;;;14.91;76.02;99792.91;4948777;29;20047;-96
2023/09/09 01:15:18;;;;;;;5.53;3.22;;;;;;;14.74;76.21;99768.94;4943871;29;20047;-96
2023/09/09 01:22:03;;;;;;;5.93;3.65;;;;;;;14.60;76.69;99763.38;4903904;29;20145;-96
2023/09/09 01:25:35;;;;;;;5.57;3.50;;;;;;;14.54;76.45;99762.56;4902644;29;20029;-96
2023/09/09 01:28:40;;;;;;;6.80;3.28;;;;;;;14.49;76.76;99759.13;4901721;29;20060;-96
2023/09/09 01:31:37;;;;;;;9.85;4.32;;;;;;;14.39;77.20;99765.44;4895683;29;20045;-96
2023/09/09 01:35:02;;;;;;;;;;;;;;;;;;;;;
2023/09/09 01:37:50;;;;;;;7.15;3.35;;;;;;;14.31;76.94;99758.72;4872565;29;20083;-96
2023/09/09 01:44:09;;;;;;;8.55;3.70;;;;;;;14.25;77.40;99762.56;4920867;29;20129;-96
2023/09/09 01:47:09;;;;;;;;;;;;;;;;;;;;;
2023/09/09 01:49:47;;;;;;;10.68;3.45;;;;;;;14.21;77.38;99755.28;4938296;29;20068;-96
2023/09/09 01:52:38;;;;;;;5.15;3.55;;;;;;;14.24;76.96;99760.97;4938696;29;20066;-96
2023/09/09 02:08:40;;;;;;;;;;;;;;;;;;;;;
2023/09/09 02:21:13;;;;;;;4.70;3.15;;;;;;;13.94;77.17;99759.25;4870443;29;20081;-96
2023/09/09 02:24:12;;;;;;;6.97;3.63;;;;;;;13.96;76.56;99754.38;4888686;29;20043;-96
2023/09/09 02:26:59;;;;;;;;;;;;;;;;;;;;;
2023/09/09 02:30:00;;;;;;;6.30;3.45;;;;;;;13.78;76.74;99749.63;4884746;29;20077;-96
2023/09/09 02:35:45;;;;;;;5.90;3.38;;;;;;;13.79;76.67;99753.97;4880496;29;20038;-96
2023/09/09 02:38:47;;;;;;;5.32;3.60;;;;;;;13.73;77.01;99753.97;4881158;29;20078;-96
2023/09/09 02:44:13;;;;;;;6.13;3.70;;;;;;;13.72;76.83;99762.41;4801630;29;20019;-96
2023/09/09 02:46:58;;;;;;;;;;;;;;;;;;;;;
2023/09/09 02:49:26;;;;;;;7.45;3.50;;;;;;;13.77;77.16;99777.78;4832455;29;20110;-96
2023/09/09 02:51:51;;;;;;;5.93;3.13;;;;;;;13.66;76.94;99763.50;4829916;29;20046;-96
2023/09/09 02:54:25;;;;;;;7.60;3.53;;;;;;;13.68;76.88;99758.63;4835067;29;20042;-96
2023/09/09 02:56:57;;;;;;;5.65;3.00;;;;;;;13.67;76.74;99755.09;4838757;29;20040;-96
2023/09/09 02:59:23;;;;;;;8.70;3.75;;;;;;;13.68;76.51;99748.63;4864533;29;20048;-96
2023/09/09 03:01:49;;;;;;;9.60;4.15;;;;;;;13.68;76.45;99743.19;4873689;29;20080;-95
2023/09/09 03:04:19;;;;;;;6.07;3.30;;;;;;;13.64;76.52;99754.88;4875205;29;20041;-95
2023/09/09 03:06:47;;;;;;;7.60;3.25;;;;;;;13.59;76.27;99747.56;4876410;29;20432;-96
2023/09/09 03:09:16;;;;;;;4.80;3.15;;;;;;;13.59;76.31;99749.47;4860360;29;20059;-95
2023/09/09 03:11:42;;;;;;;5.57;3.25;;;;;;;13.58;76.43;99759.50;4881190;29;20032;-96
2023/09/09 03:14:09;;;;;;;5.30;3.60;;;;;;;13.57;76.38;99752.44;4950038;29;20067;-94
2023/09/09 03:16:39;;;;;;;5.03;3.33;;;;;;;13.57;76.38;99757.06;4947157;29;20500;-95
2023/09/09 03:19:07;;;;;;;9.90;4.07;;;;;;;13.45;76.57;99743.88;4948876;29;20031;-95
2023/09/09 03:21:40;;;;;;;6.78;3.50;;;;;;;13.46;76.54;99757.09;4932440;28;20111;-96
2023/09/09 03:24:09;;;;;;;4.40;3.42;;;;;;;13.37;76.76;99750.66;4932803;29;20050;-96
2023/09/09 03:26:48;;;;;;;6.20;3.67;;;;;;;13.33;76.75;99757.72;4947905;29;20066;-96
2023/09/09 03:29:16;;;;;;;5.85;3.60;;;;;;;13.31;76.81;99759.88;4933053;29;20019;-96
2023/09/09 03:31:44;;;;;;;4.00;3.53;;;;;;;13.32;76.63;99761.50;4948779;29;20142;-95
2023/09/09 03:34:29;;;;;;;5.25;3.58;;;;;;;13.30;76.25;99758.25;4932008;29;20058;-96
2023/09/09 03:37:01;;;;;;;6.72;3.33;;;;;;;13.32;76.30;99766.91;4952829;29;20493;-96
2023/09/09 03:39:36;;;;;;;;;;;;;;;13.36;76.53;99786.91;4960235;29;20035;-96
2023/09/09 03:42:07;;;;;;;6.30;3.13;;;;;;;13.23;76.45;99774.75;4955299;29;19898;-96
2023/09/09 03:44:37;;;;;;;7.20;3.38;;;;;;;13.12;76.49;99755.06;4961501;29;20043;-96
2023/09/09 03:47:13;;;;;;;4.78;3.47;;;;;;;13.11;76.26;99768.84;4939293;29;20029;-96
2023/09/09 03:50:15;;;;;;;5.93;3.38;;;;;;;13.14;76.14;99763.72;4961660;28;20031;-96
2023/09/09 03:52:53;;;;;;;6.93;3.65;;;;;;;13.11;76.35;99771.56;4961239;29;20505;-96
2023/09/09 03:55:29;;;;;;;6.93;3.58;;;;;;;13.26;76.55;99792.31;4952473;29;20043;-96
2023/09/09 03:57:58;;;;;;;11.30;3.95;;;;;;;13.21;76.61;99798.56;4938564;29;20170;-96
2023/09/09 04:00:42;;;;;;;9.20;3.92;;;;;;;13.04;76.48;99779.97;4937440;29;20050;-96
2023/09/09 04:03:10;;;;;;;8.05;4.45;;;;;;;13.02;76.36;99768.59;4939020;29;20031;-96
2023/09/09 04:05:39;;;;;;;5.05;3.60;;;;;;;13.03;76.18;99778.34;4939388;29;20051;-96
2023/09/09 04:08:21;;;;;;;6.35;3.40;;;;;;;13.14;76.53;99793.44;4955230;29;20110;-96
2023/09/09 04:10:59;;;;;;;8.63;3.67;;;;;;;13.14;76.47;99796.16;4953475;29;20063;-96
2023/09/09 04:13:50;;;;;;;7.47;3.35;;;;;;;13.06;76.34;99782.38;4936475;29;20039;-96
2023/09/09 04:16:30;;;;;;;4.90;3.37;;;;;;;13.09;76.37;99787.22;4952823;29;20023;-96
2023/09/09 04:19:09;;;;;;;5.93;3.65;;;;;;;13.13;76.38;99799.91;4913763;29;20322;-96
2023/09/09 04:21:37;;;;;;;9.63;4.00;;;;;;;13.07;76.43;99789.41;4898609;29;20044;-96
2023/09/09 04:24:10;;;;;;;5.35;3.33;;;;;;;13.18;76.90;99807.22;4898184;29;20043;-96
2023/09/09 04:26:48;;;;;;;6.85;3.80;;;;;;;13.13;76.86;99799.91;4898231;29;20108;-96
2023/09/09 04:29:27;;;;;;;7.97;3.63;;;;;;;13.17;76.69;99796.69;4899248;29;20079;-96
2023/09/09 04:31:58;;;;;;;7.53;3.78;;;;;;;13.21;76.70;99811.28;4882817;29;20076;-96
2023/09/09 04:34:30;;;;;;;6.82;4.10;;;;;;;13.08;76.93;99782.94;4898388;29;20043;-96
2023/09/09 04:37:20;;;;;;;7.47;3.63;;;;;;;13.16;76.78;99798.59;4898232;29;20037;-96
2023/09/09 04:40:00;;;;;;;6.78;3.25;;;;;;;13.26;76.52;99811.25;4913333;29;20037;-96
2023/09/09 04:42:43;;;;;;;6.80;3.55;;;;;;;13.25;76.41;99804.22;4901675;29;20043;-96
2023/09/09 04:45:30;;;;;;;;;;;;;;;;;;;;;
2023/09/09 04:48:11;;;;;;;;;;;;;;;;;;;;;
2023/09/09 04:50:50;;;;;;;;;;;;;;;;;;;;;
2023/09/09 04:53:22;;;;;;;5.82;3.30;;;;;;;13.42;75.33;99799.31;4955666;29;20070;-96
2023/09/09 04:55:56;;;;;;;7.57;3.40;;;;;;;13.43;75.67;99792.84;4953833;29;20035;-96
2023/09/09 04:58:35;;;;;;;11.10;3.72;;;;;;;13.31;76.20;99795.06;4953737;29;20075;-96
2023/09/09 05:01:09;;;;;;;8.85;3.65;;;;;;;13.46;75.29;99805.81;4965733;28;20051;-96
2023/09/09 05:03:52;;;;;;;6.07;3.20;;;;;;;13.62;75.16;99808.47;4964523;28;20024;-96
2023/09/09 05:06:23;;;;;;;8.02;3.17;;;;;;;13.67;74.08;99797.59;4963092;28;20102;-96
2023/09/09 05:09:07;;;;;;;;;;;;;;;;;;;;;
2023/09/09 05:15:16;;;;;;;7.78;3.53;;;;;;;13.91;73.76;99798.53;4917279;28;20091;-96
2023/09/09 05:17:53;;;;;;;5.90;3.00;;;;;;;13.92;74.07;99808.31;4949369;28;20039;-96
2023/09/09 05:20:24;;;;;;;4.05;2.60;;;;;;;13.87;73.80;99792.06;4964782;28;20043;-96
2023/09/09 05:22:53;;;;;;;6.35;3.30;;;;;;;13.92;73.96;99785.81;4963088;29;20063;-96
2023/09/09 05:25:41;;;;;;;5.40;2.95;;;;;;;13.98;73.87;99792.00;4949038;29;20039;-96
2023/09/09 05:28:09;;;;;;;10.02;2.85;;;;;;;13.97;73.28;99785.78;4960631;28;20139;-96
2023/09/09 05:30:47;;;;;;;6.70;3.10;;;;;;;14.10;73.95;99792.47;4959404;29;20118;-96
2023/09/09 05:33:31;;;;;;;;;;;;;;;;;;;;;
2023/09/09 05:36:21;;;;;;;8.20;2.88;;;;;;;14.24;73.55;99796.16;4962486;29;20067;-96
2023/09/09 05:39:03;;;;;;;4.78;3.53;;;;;;;14.41;73.01;99808.50;4961961;29;20105;-96
2023/09/09 05:41:37;;;;;;;;;;;;;;;14.45;72.68;99810.34;4956774;28;20051;-96
2023/09/09 05:44:10;;;;;;;7.65;2.80;;;;;;;14.54;72.54;99814.06;4972886;29;19954;-96
2023/09/09 05:46:37;;;;;;;7.30;3.10;;;;;;;14.46;72.72;99790.28;4937852;29;20102;-96
2023/09/09 05:49:07;;;;;;;9.05;3.17;;;;;;;14.67;72.61;99815.38;4955745;28;20035;-96
2023/09/09 05:58:58;;;;;;;4.13;2.90;;;;;;;14.74;71.55;99796.06;4941778;29;20060;-96
2023/09/09 07:07:51;;;;;;;3.97;3.00;;;;;;;18.23;61.80;99834.00;1414787;23;21561;31
2023/09/09 07:10:44;;;;;;;;;;;;;;;;;;;;;
2023/09/09 07:20:24;;;;;;;5.03;3.15;;;;;;;18.58;60.36;99816.78;4974883;28;20038;-96
2023/09/09 07:22:56;;;;;;;4.85;2.70;;;;;;;18.77;59.73;99813.03;4976084;28;20044;-96
2023/09/09 07:29:22;;;;;;;6.10;3.00;;;;;;;19.36;58.28;99835.50;4953548;29;20017;-96
2023/09/09 07:32:17;;;;;;;4.97;2.80;;;;;;;19.38;58.31;99832.44;5099596;23;20059;-95
2023/09/09 07:34:43;;;;;;;9.50;3.00;;;;;;;19.52;57.65;99819.47;4944591;29;20048;-96
2023/09/09 07:37:24;;;;;;;4.65;2.80;;;;;;;19.54;57.07;99824.63;4928474;29;20068;-96
2023/09/09 07:39:51;;;;;;;5.80;2.72;;;;;;;19.70;57.40;99822.28;4943953;29;20094;-95
2023/09/09 07:42:22;;;;;;;4.63;2.63;;;;;;;19.85;56.55;99821.03;4928103;29;20487;-96
2023/09/09 07:44:48;;;;;;;4.35;2.53;;;;;;;19.90;56.70;99810.75;4929165;29;20039;-96
2023/09/09 07:47:40;;;;;;;7.63;3.13;;;;;;;20.16;56.05;99831.84;4928398;29;20565;-96
2023/09/09 07:50:18;;;;;;;6.43;2.60;;;;;;;20.37;55.56;99827.31;4930757;29;20040;-96
2023/09/09 07:52:46;;;;;;;8.23;2.72;;;;;;;20.40;55.81;99825.88;4928489;29;20039;-96
2023/09/09 07:55:15;;;;;;;8.05;4.35;;;;;;;20.53;54.77;99821.34;4929769;29;20057;-96
2023/09/09 08:05:37;;;;;;;6.85;2.53;;;;;;;21.16;51.23;99803.31;5609521;23;20040;-95
2023/09/09 08:08:03;;;;;;;7.40;2.40;;;;;;;21.42;49.13;99815.31;4964673;29;20118;-96
2023/09/09 08:10:29;;;;;;;9.00;2.58;;;;;;;21.52;48.21;99799.31;4949882;29;20054;-95
2023/09/09 08:13:04;;;;;;;8.68;3.17;;;;;;;21.62;46.74;99798.13;4945399;29;20035;-96
2023/09/09 08:15:30;;;;;;;4.22;2.20;;;;;;;21.80;45.44;99802.34;4961055;29;20027;-95
2023/09/09 08:17:56;;;;;;;6.88;2.38;;;;;;;21.98;44.20;99805.78;4944099;29;20011;-95
2023/09/09 08:20:22;;;;;;;4.35;2.05;;;;;;;22.05;43.63;99790.72;4941479;29;20185;-95
2023/09/09 08:22:49;;;;;;;5.68;2.28;;;;;;;22.23;42.43;99794.16;4959573;29;20035;-96
2023/09/09 08:25:18;;;;;;;5.30;2.40;;;;;;;22.33;41.55;99808.28;4944666;29;20070;-96
2023/09/09 08:27:43;;;;;;;6.50;2.97;;;;;;;22.37;40.94;99803.72;4944492;29;20031;-96
2023/09/09 08:30:22;;;;;;;6.38;3.00;;;;;;;22.47;39.66;99807.16;4946879;29;20063;-96
2023/09/09 08:32:48;;;;;;;4.47;2.40;;;;;;;22.59;38.83;99808.00;4946193;28;20031;-94
2023/09/09 08:35:16;;;;;;;8.00;1.90;;;;;;;22.64;38.17;99795.22;4951705;29;20039;-96
2023/09/09 08:37:57;;;;;;;;;;;;;;;;;;;;;
2023/09/09 08:46:41;;;;;;;7.78;2.28;;;;;;;22.77;36.25;99789.41;4913190;29;20040;-96
2023/09/09 08:49:06;;;;;;;7.03;1.47;;;;;;;22.81;33.98;99781.31;4941651;28;20046;-96
2023/09/09 08:51:58;;;;;;;;;;;;;;;;;;;;;
2023/09/09 09:03:38;;;;;;;3.67;1.50;;;;;;;22.93;31.03;99775.84;4937588;29;20080;-96
2023/09/09 09:06:15;;;;;;;3.33;1.70;;;;;;;23.10;31.77;99796.81;4904970;29;20043;-96
2023/09/09 09:08:49;;;;;;;7.07;1.60;;;;;;;23.04;31.06;99775.41;4881514;29;20063;-95
2023/09/09 09:16:49;;;;;;;3.50;1.83;;;;;;;23.31;29.40;99771.19;5006795;23;20069;-96
2023/09/09 09:19:57;;;;;;;;;;;;;;;;;;;;;
2023/09/09 09:22:54;;;;;;;5.60;1.92;;;;;;;23.49;29.93;99760.72;4990420;28;20096;-96
2023/09/09 09:32:05;;;;;;;4.63;1.70;;;;;;;23.66;27.13;99751.41;4941934;28;20058;-96
2023/09/09 09:35:07;;;;;;;5.72;1.70;;;;;;;23.85;26.92;99757.16;4960608;28;20125;-96
2023/09/09 09:47:08;;;;;;;3.35;1.55;;;;;;;24.17;24.95;99758.03;5160460;23;20069;-96
2023/09/09 09:49:56;;;;;;;;;;;;;;;;;;;;;
2023/09/09 09:52:29;;;;;;;4.47;1.45;;;;;;;24.14;25.12;99753.25;4968205;28;20098;-96
2023/09/09 09:55:19;;;;;;;3.92;1.40;;;;;;;24.23;25.29;99757.81;4950540;28;20042;-96
2023/09/09 09:57:45;;;;;;;10.60;1.92;;;;;;;24.19;24.20;99730.19;4967372;28;20041;-96
2023/09/09 10:00:13;;;;;;;4.00;1.88;;;;;;;24.26;24.46;99754.34;4954262;28;20055;-96
2023/09/09 10:02:44;;;;;;;6.35;1.40;;;;;;;24.26;24.92;99744.16;4950260;28;20042;-96
2023/09/09 10:05:27;;;;;;;3.65;1.33;;;;;;;24.06;23.92;99729.44;4954459;28;20034;-96
2023/09/09 10:08:25;;;;;;;2.75;1.42;;;;;;;24.28;23.97;99739.09;4960143;28;20031;-96
2023/09/09 10:11:13;;;;;;;3.50;1.05;;;;;;;24.26;24.33;99724.06;5227962;23;20051;-96
2023/09/09 10:13:44;;;;;;;5.20;1.58;;;;;;;24.31;25.31;99743.88;4970636;28;20493;-96
2023/09/09 10:16:12;;;;;;;;;;;;;;;24.35;25.41;99744.00;4985892;28;20487;-96
2023/09/09 10:18:40;;;;;;;3.25;1.48;;;;;;;24.34;26.39;99745.13;4969465;28;19915;-94
2023/09/09 10:21:18;;;;;;;6.97;1.77;;;;;;;24.41;25.93;99735.13;4973644;28;20396;-96
2023/09/09 10:23:54;;;;;;;4.40;1.50;;;;;;;24.52;25.77;99742.88;4969959;28;20046;-96
2023/09/09 10:26:20;;;;;;;4.95;1.83;;;;;;;24.51;25.00;99730.25;4971630;28;20038;-96
2023/09/09 10:28:51;;;;;;;3.35;1.50;;;;;;;24.52;24.16;99712.59;4986906;28;20034;-96
2023/09/09 10:31:26;;;;;;;5.93;1.90;;;;;;;24.59;24.67;99719.09;4972297;28;20046;-96
2023/09/09 10:34:16;;;;;;;11.73;2.13;;;;;;;24.65;25.14;99714.13;4980247;28;20042;-96
2023/09/09 10:48:53;;;;;;;4.13;1.42;;;;;;;24.87;25.16;99711.91;4989932;28;20126;-96
2023/09/09 10:51:22;;;;;;;2.85;1.50;;;;;;;24.80;25.30;99693.25;4973568;28;20038;-96
2023/09/09 10:54:12;;;;;;;3.60;1.40;;;;;;;24.68;25.12;99696.09;4957434;28;20047;-96
2023/09/09 10:56:57;;;;;;;2.72;1.75;;;;;;;24.77;25.34;99699.47;4971082;28;20035;-96
2023/09/09 11:00:21;;;;;;;4.93;1.27;;;;;;;24.57;25.55;99682.88;4915232;29;20107;-96
2023/09/09 11:02:50;;;;;;;7.95;1.70;;;;;;;24.73;25.45;99684.81;4822214;29;20046;-96
2023/09/09 11:06:29;;;;;;;;;;;;;;;;;;;;;
2023/09/09 11:09:10;;;;;;;4.05;1.52;;;;;;;24.88;25.58;99705.22;4766237;30;20350;-96
2023/09/09 11:11:42;;;;;;;6.65;1.35;;;;;;;24.86;25.55;99689.09;4779735;29;20040;-96
2023/09/09 11:14:08;;;;;;;4.80;1.40;;;;;;;24.92;25.96;99692.34;4861009;29;20040;-94
2023/09/09 11:16:54;;;;;;;4.28;1.35;;;;;;;24.98;25.47;99685.41;4894095;29;20045;-96
2023/09/09 11:19:26;;;;;;;4.90;1.45;;;;;;;24.98;25.79;99669.66;4896373;29;20029;-96
2023/09/09 11:24:58;;;;;;;3.47;1.35;;;;;;;25.16;25.23;99672.84;5073221;23;20133;-95
2023/09/09 11:27:51;;;;;;;3.95;1.45;;;;;;;25.23;25.28;99660.41;4953373;28;20034;-96
2023/09/09 11:30:21;;;;;;;3.55;1.58;;;;;;;25.24;25.34;99662.81;4982600;28;20109;-96
2023/09/09 11:32:50;;;;;;;5.80;1.60;;;;;;;25.18;24.88;99665.00;4948167;28;20042;-96
2023/09/09 11:35:21;;;;;;;3.17;1.73;;;;;;;25.01;24.83;99637.88;4954351;28;20054;-96
2023/09/09 11:37:59;;;;;;;;;;;;;;;;;;;;;
2023/09/09 11:43:19;;;;;;;7.55;1.50;;;;;;;25.19;24.28;99633.56;4958387;28;20062;-96
2023/09/09 11:45:45;;;;;;;10.43;1.58;;;;;;;25.14;24.79;99636.56;4949030;28;20031;-96
2023/09/09 11:48:13;;;;;;;2.33;1.02;;;;;;;25.07;24.00;99639.19;4946381;28;20039;-96
2023/09/09 11:50:57;;;;;;;5.03;1.17;;;;;;;25.16;24.31;99652.75;4962961;28;20027;-96
2023/09/09 11:57:29;;;;;;;1.85;1.30;;;;;;;25.17;24.15;99640.56;4895980;29;20020;-96
2023/09/09 12:00:01;;;;;;;4.25;1.60;;;;;;;25.28;25.19;99636.13;4864083;29;20036;-96
2023/09/09 12:02:27;;;;;;;5.03;1.83;;;;;;;25.33;25.22;99624.78;4866623;29;20052;-96
2023/09/09 12:05:18;;;;;;;4.10;1.48;;;;;;;25.45;24.29;99629.38;4881124;29;20020;-96
2023/09/09 12:08:27;;;;;;;6.78;1.77;;;;;;;25.54;25.02;99629.16;4898458;29;20175;-96
2023/09/09 12:11:47;;;;;;;;;;;;;;;;;;;;;
2023/09/09 12:14:35;;;;;;;2.00;1.15;;;;;;;25.63;24.30;99631.69;4966430;28;20057;-96
2023/09/09 12:17:12;;;;;;;4.20;1.45;;;;;;;25.54;24.31;99604.34;4960414;28;20030;-95
2023/09/09 12:32:42;;;;;;;4.57;1.35;;;;;;;25.80;23.94;99614.72;4965821;28;20106;-95
2023/09/09 12:35:13;;;;;;;3.33;1.40;;;;;;;25.77;23.51;99604.38;4965512;28;20047;-96
2023/09/09 12:37:41;;;;;;;8.95;1.00;;;;;;;25.59;23.21;99591.06;4951108;28;20035;-95
2023/09/09 12:40:08;;;;;;;4.03;1.45;;;;;;;25.81;23.15;99606.03;4953773;28;20065;-96
2023/09/09 12:42:55;;;;;;;6.90;1.30;;;;;;;25.73;23.30;99589.72;4953457;28;20042;-96
2023/09/09 12:45:28;;;;;;;5.22;1.10;;;;;;;25.73;23.04;99586.97;4972121;28;20043;-96
2023/09/09 12:47:54;;;;;;;2.15;1.23;;;;;;;25.71;23.49;99581.03;4970228;28;20062;-96
2023/09/09 12:50:23;;;;;;;4.93;1.30;;;;;;;25.72;23.50;99585.41;4968066;28;20031;-96
2023/09/09 12:52:48;;;;;;;4.15;1.30;;;;;;;25.89;23.08;99595.97;4950716;28;20054;-96
2023/09/09 12:55:17;;;;;;;5.78;1.60;;;;;;;25.98;23.24;99599.31;4953435;28;20046;-96
2023/09/09 12:58:04;;;;;;;2.08;1.13;;;;;;;25.96;23.21;99574.06;4954139;28;20078;-96
2023/09/09 13:00:42;;;;;;;;;;;;;;;;;;;;;
2023/09/09 13:03:09;;;;;;;4.40;1.30;;;;;;;26.09;23.27;99587.66;4970705;28;20091;-96
2023/09/09 13:05:35;;;;;;;4.97;1.40;;;;;;;26.08;22.07;99581.31;4955642;28;20107;-96
2023/09/09 13:14:34;;;;;;;3.00;1.30;;;;;;;25.99;23.46;99555.97;4901510;29;20043;-96
2023/09/09 13:19:40;;;;;;;3.95;1.45;;;;;;;26.13;23.51;99569.22;5402435;23;20062;-95
2023/09/09 13:22:09;;;;;;;3.35;1.30;;;;;;;26.10;23.71;99545.09;4965923;28;20097;-96
2023/09/09 13:24:37;;;;;;;3.30;1.42;;;;;;;26.16;22.95;99557.41;4952989;28;20093;-96
2023/09/09 13:27:03;;;;;;;2.35;1.38;;;;;;;26.13;22.81;99549.88;4951254;28;20102;-96
2023/09/09 13:29:36;;;;;;;5.07;1.52;;;;;;;26.27;23.35;99555.63;4953083;28;20065;-96
2023/09/09 13:38:42;;;;;;;;;;;;;;;26.47;23.45;99561.06;4944817;28;20169;-96
2023/09/09 13:41:28;;;;;;;;;;;;;;;;;;;;;
2023/09/09 13:47:20;;;;;;;1.95;1.33;;;;;;;26.48;23.01;99554.34;4962350;28;20062;-96
2023/09/09 13:49:51;;;;;;;3.30;1.40;;;;;;;26.47;23.26;99541.72;4968349;28;20049;-96
2023/09/09 13:52:40;;;;;;;;;;;;;;;;;;;;;
2023/09/09 13:55:15;;;;;;;4.22;1.35;;;;;;;26.76;23.43;99546.53;4975910;28;20071;-96
2023/09/09 13:57:53;;;;;;;2.55;1.30;;;;;;;26.72;22.80;99544.88;4972110;28;20098;-96
2023/09/09 14:00:28;;;;;;;2.95;1.42;;;;;;;26.69;23.91;99540.91;4956899;28;20074;-96
2023/09/09 14:03:24;;;;;;;3.90;1.77;;;;;;;26.89;23.52;99543.53;4960452;28;20058;-96
2023/09/09 14:06:21;;;;;;;3.35;1.20;;;;;;;26.77;23.15;99531.56;4970091;28;20035;-96
2023/09/09 14:08:59;;;;;;;;;;;;;;;;;;;;;
2023/09/09 14:11:45;;;;;;;2.25;1.30;;;;;;;27.20;23.05;99545.91;4976326;28;20094;-96
2023/09/09 14:14:33;;;;;;;4.93;1.50;;;;;;;26.93;23.60;99538.84;4927122;28;20062;-96
2023/09/09 14:17:25;;;;;;;4.95;1.55;;;;;;;26.98;23.08;99519.19;5212004;23;20051;-96
2023/09/09 14:19:56;;;;;;;2.28;1.25;;;;;;;27.16;22.99;99528.47;4896297;29;20119;-96
2023/09/09 14:22:30;;;;;;;4.88;1.38;;;;;;;27.23;23.05;99515.94;4898876;29;20051;-96
2023/09/09 14:25:00;;;;;;;3.15;1.60;;;;;;;27.40;22.76;99524.44;4914984;29;20050;-96
2023/09/09 14:27:59;;;;;;;2.72;1.38;;;;;;;27.66;22.61;99533.78;4899516;29;20032;-96
2023/09/09 14:30:47;;;;;;;3.42;1.85;;;;;;;27.63;23.00;99515.19;4914393;29;20040;-96
2023/09/09 14:33:13;;;;;;;5.20;1.50;;;;;;;27.78;22.32;99527.97;4932284;29;20024;-96
2023/09/09 14:36:04;;;;;;;3.00;1.40;;;;;;;28.00;22.24;99531.78;4901576;29;20111;-96
2023/09/09 14:39:08;;;;;;;2.10;1.33;;;;;;;27.86;22.61;99512.28;4919956;29;20040;-96
2023/09/09 14:41:39;;;;;;;7.10;1.60;;;;;;;27.97;24.09;99528.97;4860813;29;20065;-96
2023/09/09 14:44:36;;;;;;;5.20;1.50;;;;;;;27.94;21.88;99515.91;4860962;29;20052;-96
2023/09/09 14:47:14;;;;;;;;;;;;;;;;;;;;;
2023/09/09 14:49:46;;;;;;;2.97;1.55;;;;;;;27.72;22.13;99514.88;4875498;29;20123;-96
2023/09/09 14:52:11;;;;;;;;;;;;;;;27.79;22.18;99534.31;4856495;29;20036;-96
2023/09/09 14:54:37;;;;;;;8.93;2.20;;;;;;;27.59;23.31;99517.91;4871591;29;19947;-96
2023/09/09 14:57:14;;;;;;;6.68;2.97;;;;;;;27.52;23.54;99528.91;4871870;29;20044;-96
2023/09/09 15:02:46;;;;;;;4.15;1.38;;;;;;;27.12;22.28;99505.53;4857501;29;20129;-96
2023/09/09 15:05:19;;;;;;;2.97;1.30;;;;;;;27.10;22.02;99521.72;4872000;29;20052;-96
2023/09/09 15:07:47;;;;;;;3.90;1.60;;;;;;;27.02;23.46;99514.50;4857286;29;20041;-96
2023/09/09 15:10:34;;;;;;;3.35;1.58;;;;;;;26.90;23.38;99514.75;4859640;29;20036;-96
2023/09/09 15:13:12;;;;;;;;;;;;;;;;;;;;;
2023/09/09 15:15:41;;;;;;;2.65;1.20;;;;;;;26.66;22.39;99507.72;4924504;29;20119;-96
2023/09/09 15:18:14;;;;;;;8.23;1.73;;;;;;;26.58;24.45;99498.50;4893981;29;20052;-96
2023/09/09 15:20:40;;;;;;;6.00;1.40;;;;;;;26.48;23.76;99499.13;4910344;29;20051;-96
2023/09/09 15:23:09;;;;;;;2.53;1.30;;;;;;;26.39;22.43;99507.69;4893376;29;20084;-96
2023/09/09 15:25:35;;;;;;;2.72;1.42;;;;;;;26.36;23.58;99517.53;4894268;29;20032;-96
2023/09/09 15:28:18;;;;;;;3.58;1.67;;;;;;;26.24;22.54;99514.97;4896380;29;20614;-96
2023/09/09 15:31:05;;;;;;;;;;;;;;;;;;;;;
2023/09/09 15:34:02;;;;;;;6.40;2.10;;;;;;;25.99;24.24;99507.06;4907991;29;20044;-96
2023/09/09 15:36:33;;;;;;;2.92;1.50;;;;;;;25.92;22.95;99517.19;4915371;29;20040;-96
2023/09/09 15:39:29;;;;;;;3.47;1.40;;;;;;;25.72;22.99;99499.88;4920267;29;20040;-96
2023/09/09 15:46:10;;;;;;;2.47;1.60;;;;;;;25.50;25.06;99507.75;4878785;29;20110;-96
2023/09/09 15:57:59;;;;;;;5.38;1.60;;;;;;;25.07;22.37;99522.63;5702135;23;20067;-96
2023/09/09 16:05:37;;;;;;;4.22;1.25;;;;;;;24.91;23.37;99509.75;4948372;28;20079;-96
2023/09/09 16:08:21;;;;;;;5.03;1.38;;;;;;;24.99;23.96;99536.28;4960155;29;20506;-96
2023/09/09 16:10:59;;;;;;;5.78;1.70;;;;;;;24.93;24.55;99532.22;4931540;29;20056;-96
2023/09/09 16:13:32;;;;;;;4.40;1.30;;;;;;;24.86;22.43;99526.56;4947033;29;20087;-96
2023/09/09 16:16:09;;;;;;;6.32;1.70;;;;;;;24.78;21.99;99527.56;4943346;29;20036;-96
2023/09/09 16:18:38;;;;;;;6.13;1.50;;;;;;;24.73;22.29;99536.88;4930491;29;20032;-95
2023/09/09 16:21:27;;;;;;;4.60;1.70;;;;;;;24.62;22.34;99519.34;4932657;29;20046;-96
2023/09/09 16:40:44;;;;;;;;;;;;;;;;;;;;;
2023/09/09 16:43:18;;;;;;;8.00;1.52;;;;;;;24.28;20.71;99531.88;4878043;29;20092;-96
2023/09/09 16:46:22;;;;;;;2.97;1.67;;;;;;;24.28;21.24;99534.63;4956197;29;20027;-96
2023/09/09 16:49:00;;;;;;;2.28;1.38;;;;;;;24.15;21.02;99537.47;4884755;29;20075;-96
2023/09/09 16:51:47;;;;;;;;;;;;;;;;;;;;;
2023/09/09 16:54:32;;;;;;;4.85;1.50;;;;;;;24.12;21.25;99548.41;5034571;23;20037;-96
2023/09/09 16:56:59;;;;;;;2.70;1.58;;;;;;;24.05;21.57;99546.28;4938250;29;20034;-96
2023/09/09 16:59:57;;;;;;;2.47;1.50;;;;;;;24.03;22.23;99554.09;4921482;29;20075;-95
2023/09/09 17:02:31;;;;;;;6.35;1.73;;;;;;;23.97;22.63;99561.81;4939316;29;20499;-96
2023/09/09 17:05:09;;;;;;;6.90;3.60;;;;;;;23.89;25.85;99560.03;4921803;29;20054;-96
2023/09/09 17:08:00;;;;;;;6.13;3.30;;;;;;;23.75;26.99;99559.63;4940169;28;20076;-96
2023/09/09 17:10:47;;;;;;;7.47;3.90;;;;;;;23.55;29.30;99561.44;4905701;29;20024;-96
2023/09/09 17:16:40;;;;;;;11.75;3.40;;;;;;;23.26;31.83;99570.84;4941056;29;20032;-96
2023/09/09 17:19:06;;;;;;;6.95;3.22;;;;;;;23.08;33.37;99579.38;4938470;29;20036;-96
2023/09/09 17:22:13;;;;;;;;;;;;;;;;;;;;;
2023/09/09 17:24:47;;;;;;;6.43;2.40;;;;;;;22.76;35.13;99581.09;4955846;29;20055;-96
2023/09/09 17:27:43;;;;;;;16.02;2.92;;;;;;;22.66;35.69;99593.38;4939583;29;20107;-96
2023/09/09 17:30:44;;;;;;;5.47;2.65;;;;;;;22.56;36.97;99611.09;4910741;29;20055;-96
2023/09/09 17:33:36;;;;;;;6.47;2.70;;;;;;;22.32;37.16;99594.59;4909178;29;20024;-96
2023/09/09 17:36:19;;;;;;;5.53;2.70;;;;;;;22.36;37.20;99626.50;4940555;28;20031;-96
2023/09/09 17:39:39;;;;;;;;;;;;;;;;;;;;;
2023/09/09 17:42:22;;;;;;;;;;;;;;;;;;;;;
2023/09/09 17:50:04;;;;;;;13.02;3.85;;;;;;;21.69;39.92;99638.66;5273525;23;20619;-96
2023/09/09 17:52:35;;;;;;;5.80;2.70;;;;;;;21.44;39.90;99629.53;4972633;29;20028;-95
2023/09/09 17:55:11;;;;;;;14.32;3.08;;;;;;;21.31;40.34;99621.22;4971148;28;20047;-96
2023/09/09 17:57:40;;;;;;;7.25;2.80;;;;;;;21.38;40.86;99643.38;4987815;28;20569;-96
2023/09/09 18:00:10;;;;;;;9.07;3.25;;;;;;;21.35;41.26;99641.31;4972977;29;20023;-96
2023/09/09 18:02:44;;;;;;;15.23;5.47;;;;;;;21.11;40.79;99624.75;4972375;29;20048;-96
2023/09/09 18:05:12;;;;;;;24.20;8.00;;;;;;;21.05;40.87;99648.75;4972226;29;20098;-96
2023/09/09 18:07:44;;;;;;;21.17;8.30;;;;;;;20.93;41.51;99643.19;4957639;29;20015;-96
2023/09/09 18:10:14;;;;;;;19.98;8.65;;;;;;;20.69;41.99;99635.59;4988258;28;20123;-96
2023/09/09 18:15:49;;;;;;;21.25;8.98;;;;;;;20.62;42.96;99668.94;4974667;28;20071;-96
2023/09/09 18:18:27;;;;;;;12.52;5.38;;;;;;;20.53;43.00;99670.91;4972827;28;20103;-96
2023/09/09 18:21:08;;;;;;;13.00;4.75;;;;;;;20.36;42.80;99647.94;4968368;28;20039;-96
2023/09/09 18:24:10;;;;;;;;;;;;;;;;;;;;;
2023/09/09 18:26:48;;;;;;;14.73;5.72;;;;;;;20.28;44.81;99656.19;4971975;29;20055;-96
2023/09/09 18:29:23;;;;;;;11.38;4.88;;;;;;;20.32;45.38;99679.81;4980901;28;20412;-96
2023/09/09 18:32:30;;;;;;;9.05;3.95;;;;;;;20.08;45.76;99663.94;4955628;29;20032;-96
2023/09/09 18:34:58;;;;;;;12.13;3.35;;;;;;;20.10;46.21;99688.22;4970536;28;20035;-96
2023/09/09 18:37:30;;;;;;;20.75;6.32;;;;;;;19.99;46.06;99685.81;4954608;29;20099;-96
2023/09/09 18:39:56;;;;;;;;;;;;;;;19.94;46.20;99686.00;4970363;29;20039;-96
2023/09/09 18:42:32;;;;;;;39.15;16.13;;;;;;;19.78;45.83;99672.03;4957443;29;19910;-96
2023/09/09 18:45:02;;;;;;;412.83;154.10;;;;;;;19.69;46.15;99679.38;4971353;29;20035;-96
2023/09/09 19:26:10;;;;;;;;;;;;;;;;;;;;;
2023/09/09 19:29:08;;;;;;;46.42;13.73;;;;;;;19.01;49.04;99719.09;4909043;29;20061;-96